createdAt,value
2017-01-23T00:00:47.150Z,0
2017-01-23T00:01:57.865Z,0
2017-01-23T00:03:08.587Z,0
2017-01-23T00:04:19.283Z,0
2017-01-23T00:05:29.983Z,0
2017-01-23T00:06:40.709Z,0
2017-01-23T00:07:51.424Z,0
2017-01-23T00:09:02.159Z,0
2017-01-23T00:10:12.866Z,0
2017-01-23T00:11:23.601Z,0
2017-01-23T00:12:34.350Z,0
2017-01-23T00:13:45.052Z,0
2017-01-23T00:14:55.763Z,0
2017-01-23T00:16:06.472Z,0
2017-01-23T00:17:17.188Z,0
2017-01-23T00:18:27.908Z,0
2017-01-23T00:19:38.648Z,0
2017-01-23T00:20:49.368Z,0
2017-01-23T00:22:00.102Z,0
2017-01-23T00:23:11.192Z,0
2017-01-23T00:24:21.910Z,0
2017-01-23T00:25:32.631Z,0
2017-01-23T00:26:43.380Z,0
2017-01-23T00:27:54.079Z,0
2017-01-23T00:29:04.789Z,0
2017-01-23T00:30:15.512Z,0
2017-01-23T00:31:26.232Z,0
2017-01-23T00:32:36.978Z,0
2017-01-23T00:33:47.702Z,0
2017-01-23T00:34:58.423Z,0
2017-01-23T00:36:09.154Z,0
2017-01-23T00:37:19.865Z,0
2017-01-23T00:38:30.600Z,0
2017-01-23T00:39:41.320Z,0
2017-01-23T00:40:52.053Z,0
2017-01-23T00:42:02.756Z,0
2017-01-23T00:43:13.460Z,0
2017-01-23T00:44:24.194Z,0
2017-01-23T00:45:34.919Z,0
2017-01-23T00:46:45.655Z,0
2017-01-23T00:47:56.382Z,0
2017-01-23T00:49:07.103Z,0
2017-01-23T00:50:17.820Z,0
2017-01-23T00:51:28.542Z,0
2017-01-23T00:52:39.286Z,0
2017-01-23T00:53:50.032Z,0
2017-01-23T00:55:00.778Z,0
2017-01-23T00:56:11.483Z,0
2017-01-23T00:57:22.202Z,0
2017-01-23T00:58:32.912Z,0
2017-01-23T00:59:43.636Z,0
2017-01-23T01:00:54.357Z,0
2017-01-23T01:02:05.097Z,0
2017-01-23T01:03:15.776Z,0
2017-01-23T01:04:26.473Z,0
2017-01-23T01:05:37.198Z,0
2017-01-23T01:06:47.936Z,0
2017-01-23T01:07:58.635Z,0
2017-01-23T01:09:09.360Z,0
2017-01-23T01:10:20.077Z,0
2017-01-23T01:11:30.804Z,0
2017-01-23T01:12:41.524Z,0
2017-01-23T01:13:52.242Z,0
2017-01-23T01:15:02.956Z,0
2017-01-23T01:16:13.690Z,0
2017-01-23T01:17:24.407Z,0
2017-01-23T01:18:35.169Z,0
2017-01-23T01:19:45.890Z,0
2017-01-23T01:20:56.619Z,0
2017-01-23T01:22:07.345Z,0
2017-01-23T01:23:18.077Z,0
2017-01-23T01:24:28.782Z,0
2017-01-23T01:25:39.504Z,0
2017-01-23T01:26:50.219Z,0
2017-01-23T01:28:00.927Z,0
2017-01-23T01:29:11.653Z,0
2017-01-23T01:30:22.376Z,0
2017-01-23T01:31:33.100Z,0
2017-01-23T01:32:43.845Z,0
2017-01-23T01:33:54.562Z,0
2017-01-23T01:35:05.294Z,0
2017-01-23T01:36:16.012Z,0
2017-01-23T01:37:26.700Z,0
2017-01-23T01:38:37.426Z,0
2017-01-23T01:39:48.151Z,0
2017-01-23T01:40:58.855Z,0
2017-01-23T01:42:09.570Z,0
2017-01-23T01:43:20.290Z,0
2017-01-23T01:44:31.033Z,0
2017-01-23T01:45:41.784Z,0
2017-01-23T01:46:52.522Z,0
2017-01-23T01:48:03.239Z,0
2017-01-23T01:49:13.970Z,0
2017-01-23T01:50:24.687Z,0
2017-01-23T01:51:35.402Z,0
2017-01-23T01:52:46.108Z,0
2017-01-23T01:53:56.820Z,0
2017-01-23T01:55:07.526Z,0
2017-01-23T01:56:18.247Z,0
2017-01-23T01:57:28.973Z,0
2017-01-23T01:58:39.711Z,0
2017-01-23T01:59:50.449Z,0
2017-01-23T02:01:01.208Z,0
2017-01-23T02:02:11.918Z,0
2017-01-23T02:03:22.673Z,0
2017-01-23T02:04:33.414Z,0
2017-01-23T02:05:44.114Z,0
2017-01-23T02:06:54.810Z,0
2017-01-23T02:08:05.523Z,0
2017-01-23T02:09:16.243Z,0
2017-01-23T02:10:26.993Z,0
2017-01-23T02:11:37.732Z,0
2017-01-23T02:12:48.496Z,0
2017-01-23T02:13:59.224Z,0
2017-01-23T02:15:09.927Z,0
2017-01-23T02:16:20.623Z,0
2017-01-23T02:17:31.322Z,0
2017-01-23T02:18:42.045Z,0
2017-01-23T02:19:52.766Z,0
2017-01-23T02:21:03.491Z,0
2017-01-23T02:22:14.199Z,0
2017-01-23T02:23:24.943Z,0
2017-01-23T02:24:35.665Z,0
2017-01-23T02:25:46.376Z,0
2017-01-23T02:26:57.091Z,0
2017-01-23T02:28:07.832Z,0
2017-01-23T02:29:18.537Z,0
2017-01-23T02:30:29.296Z,0
2017-01-23T02:31:40.020Z,0
2017-01-23T02:32:50.746Z,0
2017-01-23T02:34:01.443Z,0
2017-01-23T02:35:12.159Z,0
2017-01-23T02:36:22.896Z,0
2017-01-23T02:37:33.628Z,0
2017-01-23T02:38:44.367Z,0
2017-01-23T02:39:55.113Z,0
2017-01-23T02:41:05.818Z,0
2017-01-23T02:42:16.543Z,0
2017-01-23T02:43:27.275Z,0
2017-01-23T02:44:37.997Z,0
2017-01-23T02:45:48.720Z,0
2017-01-23T02:46:59.418Z,0
2017-01-23T02:48:10.140Z,0
2017-01-23T02:49:20.837Z,0
2017-01-23T02:50:31.555Z,0
2017-01-23T02:51:42.285Z,0
2017-01-23T02:52:53.051Z,0
2017-01-23T02:54:03.762Z,0
2017-01-23T02:55:14.482Z,0
2017-01-23T02:56:25.180Z,0
2017-01-23T02:57:35.899Z,0
2017-01-23T02:58:46.629Z,0
2017-01-23T02:59:57.353Z,0
2017-01-23T03:01:08.066Z,0
2017-01-23T03:02:18.765Z,0
2017-01-23T03:03:29.466Z,0
2017-01-23T03:04:40.204Z,0
2017-01-23T03:05:50.938Z,0
2017-01-23T03:07:01.669Z,0
2017-01-23T03:08:12.378Z,0
2017-01-23T03:09:23.092Z,0
2017-01-23T03:10:33.844Z,0
2017-01-23T03:11:44.563Z,0
2017-01-23T03:12:55.274Z,0
2017-01-23T03:14:05.989Z,0
2017-01-23T03:15:16.691Z,0
2017-01-23T03:16:27.401Z,0
2017-01-23T03:17:38.147Z,0
2017-01-23T03:18:48.858Z,0
2017-01-23T03:19:59.601Z,0
2017-01-23T03:21:10.303Z,0
2017-01-23T03:22:21.025Z,0
2017-01-23T03:23:31.726Z,0
2017-01-23T03:24:42.442Z,0
2017-01-23T03:25:53.149Z,0
2017-01-23T03:27:03.880Z,0
2017-01-23T03:28:14.605Z,0
2017-01-23T03:29:25.322Z,0
2017-01-23T03:30:36.064Z,0
2017-01-23T03:31:46.777Z,0
2017-01-23T03:32:57.468Z,0
2017-01-23T03:34:08.185Z,0
2017-01-23T03:35:18.899Z,0
2017-01-23T03:36:29.632Z,0
2017-01-23T03:37:40.366Z,0
2017-01-23T03:38:51.087Z,0
2017-01-23T03:40:01.820Z,0
2017-01-23T03:41:12.538Z,0
2017-01-23T03:42:23.233Z,0
2017-01-23T03:43:33.957Z,0
2017-01-23T03:44:44.672Z,0
2017-01-23T03:45:55.373Z,0
2017-01-23T03:47:06.088Z,0
2017-01-23T03:48:16.807Z,0
2017-01-23T03:49:27.527Z,0
2017-01-23T03:50:38.230Z,0
2017-01-23T03:51:48.934Z,0
2017-01-23T03:52:59.665Z,0
2017-01-23T03:54:10.413Z,0
2017-01-23T03:55:21.136Z,0
2017-01-23T03:56:31.866Z,0
2017-01-23T03:57:42.561Z,0
2017-01-23T03:58:53.287Z,0
2017-01-23T04:00:04.020Z,0
2017-01-23T04:01:14.722Z,0
2017-01-23T04:02:25.437Z,0
2017-01-23T04:03:36.183Z,0
2017-01-23T04:04:46.904Z,0
2017-01-23T04:05:57.629Z,0
2017-01-23T04:07:08.329Z,0
2017-01-23T04:08:19.079Z,0
2017-01-23T04:09:29.814Z,0
2017-01-23T04:10:40.538Z,0
2017-01-23T04:11:51.268Z,0
2017-01-23T04:13:01.965Z,0
2017-01-23T04:14:12.698Z,0
2017-01-23T04:15:23.417Z,0
2017-01-23T04:16:34.146Z,0
2017-01-23T04:17:44.888Z,0
2017-01-23T04:18:55.612Z,0
2017-01-23T04:20:06.352Z,0
2017-01-23T04:21:17.096Z,0
2017-01-23T04:22:27.804Z,0
2017-01-23T04:23:38.899Z,0
2017-01-23T04:24:49.641Z,0
2017-01-23T04:26:00.336Z,0
2017-01-23T04:27:11.033Z,0
2017-01-23T04:28:21.729Z,0
2017-01-23T04:29:32.429Z,0
2017-01-23T04:30:43.167Z,0
2017-01-23T04:31:53.888Z,0
2017-01-23T04:33:04.591Z,0
2017-01-23T04:34:15.313Z,0
2017-01-23T04:35:26.040Z,0
2017-01-23T04:36:36.753Z,0
2017-01-23T04:37:47.458Z,0
2017-01-23T04:38:58.194Z,0
2017-01-23T04:40:08.935Z,0
2017-01-23T04:41:19.654Z,0
2017-01-23T04:42:30.382Z,0
2017-01-23T04:43:41.083Z,0
2017-01-23T04:44:51.801Z,0
2017-01-23T04:46:02.520Z,0
2017-01-23T04:47:13.270Z,0
2017-01-23T04:48:24.010Z,0
2017-01-23T04:49:34.737Z,0
2017-01-23T04:50:45.458Z,0
2017-01-23T04:51:56.199Z,0
2017-01-23T04:53:06.906Z,0
2017-01-23T04:54:17.639Z,0
2017-01-23T04:55:28.368Z,0
2017-01-23T04:56:39.100Z,0
2017-01-23T04:57:49.810Z,0
2017-01-23T04:59:00.546Z,0
2017-01-23T05:00:11.264Z,0
2017-01-23T05:01:21.967Z,0
2017-01-23T05:02:32.668Z,0
2017-01-23T05:03:43.380Z,0
2017-01-23T05:04:54.123Z,0
2017-01-23T05:06:04.833Z,0
2017-01-23T05:07:15.590Z,0
2017-01-23T05:08:26.311Z,0
2017-01-23T05:09:37.020Z,0
2017-01-23T05:10:47.753Z,0
2017-01-23T05:11:58.501Z,0
2017-01-23T05:13:09.207Z,0
2017-01-23T05:14:19.966Z,0
2017-01-23T05:15:30.698Z,0
2017-01-23T05:16:41.444Z,0
2017-01-23T05:17:52.165Z,0
2017-01-23T05:19:02.903Z,0
2017-01-23T05:20:13.635Z,0
2017-01-23T05:21:24.395Z,0
2017-01-23T05:22:35.137Z,0
2017-01-23T05:23:45.845Z,0
2017-01-23T05:24:56.558Z,0
2017-01-23T05:26:07.288Z,0
2017-01-23T05:27:18.025Z,0
2017-01-23T05:28:28.731Z,0
2017-01-23T05:29:39.439Z,0
2017-01-23T05:30:50.148Z,0
2017-01-23T05:32:00.870Z,0
2017-01-23T05:33:11.589Z,0
2017-01-23T05:34:22.323Z,0
2017-01-23T05:35:33.030Z,0
2017-01-23T05:36:43.727Z,0
2017-01-23T05:37:54.472Z,0
2017-01-23T05:39:05.186Z,0
2017-01-23T05:40:15.911Z,0
2017-01-23T05:41:26.633Z,0
2017-01-23T05:42:37.372Z,0
2017-01-23T05:43:48.074Z,0
2017-01-23T05:44:58.801Z,0
2017-01-23T05:46:09.508Z,0
2017-01-23T05:47:20.265Z,0
2017-01-23T05:48:30.961Z,0
2017-01-23T05:49:41.655Z,0
2017-01-23T05:50:52.367Z,0
2017-01-23T05:52:03.100Z,0
2017-01-23T05:53:13.861Z,0
2017-01-23T05:54:24.596Z,0
2017-01-23T05:55:35.312Z,0
2017-01-23T05:56:46.059Z,0
2017-01-23T05:57:56.793Z,0
2017-01-23T05:59:07.517Z,0
2017-01-23T06:00:18.251Z,0
2017-01-23T06:01:28.988Z,0
2017-01-23T06:02:39.689Z,0
2017-01-23T06:03:50.426Z,0
2017-01-23T06:05:01.150Z,0
2017-01-23T06:06:11.850Z,0
2017-01-23T06:07:22.572Z,0
2017-01-23T06:08:33.323Z,0
2017-01-23T06:09:44.056Z,0
2017-01-23T06:10:54.790Z,0
2017-01-23T06:12:05.502Z,0
2017-01-23T06:13:16.199Z,0
2017-01-23T06:14:26.895Z,0
2017-01-23T06:15:37.595Z,0
2017-01-23T06:16:48.344Z,0
2017-01-23T06:17:59.048Z,0
2017-01-23T06:19:09.727Z,0
2017-01-23T06:20:20.444Z,0
2017-01-23T06:21:31.190Z,0
2017-01-23T06:22:42.271Z,0
2017-01-23T06:23:52.986Z,0
2017-01-23T06:25:03.685Z,0
2017-01-23T06:26:14.423Z,0
2017-01-23T06:27:25.123Z,0
2017-01-23T06:28:35.846Z,0
2017-01-23T06:29:46.561Z,0
2017-01-23T06:30:57.263Z,0
2017-01-23T06:32:07.984Z,0
2017-01-23T06:33:18.706Z,0
2017-01-23T06:34:29.405Z,0
2017-01-23T06:35:40.144Z,0
2017-01-23T06:36:50.844Z,0
2017-01-23T06:38:01.583Z,0
2017-01-23T06:39:12.298Z,0
2017-01-23T06:40:23.012Z,0
2017-01-23T06:41:33.748Z,0
2017-01-23T06:42:44.476Z,0
2017-01-23T06:43:55.189Z,0
2017-01-23T06:45:05.931Z,0
2017-01-23T06:46:16.638Z,0
2017-01-23T06:47:27.356Z,0
2017-01-23T06:48:38.070Z,0
2017-01-23T06:49:48.773Z,0
2017-01-23T06:50:59.504Z,0
2017-01-23T06:52:10.257Z,0
2017-01-23T06:53:21.010Z,0
2017-01-23T06:54:31.726Z,0
2017-01-23T06:55:42.473Z,0
2017-01-23T06:56:53.175Z,0
2017-01-23T06:58:03.911Z,5
2017-01-23T06:59:14.620Z,5
2017-01-23T07:00:25.365Z,5
2017-01-23T07:01:36.113Z,5
2017-01-23T07:02:46.835Z,5
2017-01-23T07:03:57.550Z,5
2017-01-23T07:05:08.246Z,5
2017-01-23T07:06:18.959Z,5
2017-01-23T07:07:29.679Z,5
2017-01-23T07:08:40.400Z,5
2017-01-23T07:09:51.109Z,10
2017-01-23T07:11:01.804Z,10
2017-01-23T07:12:12.513Z,10
2017-01-23T07:13:23.242Z,10
2017-01-23T07:14:33.943Z,10
2017-01-23T07:15:44.702Z,10
2017-01-23T07:16:55.427Z,15
2017-01-23T07:18:06.130Z,15
2017-01-23T07:19:16.865Z,15
2017-01-23T07:20:27.595Z,15
2017-01-23T07:21:38.292Z,15
2017-01-23T07:22:49.019Z,20
2017-01-23T07:23:59.735Z,20
2017-01-23T07:25:10.447Z,20
2017-01-23T07:26:21.169Z,20
2017-01-23T07:27:31.923Z,20
2017-01-23T07:28:42.659Z,25
2017-01-23T07:29:53.388Z,25
2017-01-23T07:31:04.108Z,25
2017-01-23T07:32:14.844Z,25
2017-01-23T07:33:25.573Z,25
2017-01-23T07:34:36.316Z,30
2017-01-23T07:35:47.050Z,30
2017-01-23T07:36:57.776Z,30
2017-01-23T07:38:08.879Z,30
2017-01-23T07:39:19.608Z,30
2017-01-23T07:40:30.351Z,35
2017-01-23T07:41:41.062Z,35
2017-01-23T07:42:51.794Z,35
2017-01-23T07:44:02.522Z,35
2017-01-23T07:45:13.251Z,35
2017-01-23T07:46:23.980Z,35
2017-01-23T07:47:34.721Z,40
2017-01-23T07:48:45.420Z,40
2017-01-23T07:49:56.143Z,40
2017-01-23T07:51:06.868Z,40
2017-01-23T07:52:17.593Z,40
2017-01-23T07:53:28.706Z,40
2017-01-23T07:54:39.406Z,45
2017-01-23T07:55:50.155Z,45
2017-01-23T07:57:00.888Z,45
2017-01-23T07:58:11.644Z,45
2017-01-23T07:59:22.367Z,45
2017-01-23T08:00:33.101Z,45
2017-01-23T08:01:43.826Z,45
2017-01-23T08:02:54.539Z,45
2017-01-23T08:04:05.244Z,45
2017-01-23T08:05:15.940Z,45
2017-01-23T08:06:26.683Z,45
2017-01-23T08:07:37.407Z,50
2017-01-23T08:08:48.123Z,50
2017-01-23T08:09:58.841Z,50
2017-01-23T08:11:09.563Z,50
2017-01-23T08:12:20.283Z,50
2017-01-23T08:13:31.016Z,55
2017-01-23T08:14:41.758Z,55
2017-01-23T08:15:52.452Z,60
2017-01-23T08:17:03.151Z,60
2017-01-23T08:18:13.871Z,60
2017-01-23T08:19:24.991Z,60
2017-01-23T08:20:35.691Z,65
2017-01-23T08:21:46.412Z,60
2017-01-23T08:22:57.146Z,60
2017-01-23T08:24:07.855Z,65
2017-01-23T08:25:18.571Z,70
2017-01-23T08:26:29.309Z,70
2017-01-23T08:27:40.005Z,70
2017-01-23T08:28:50.710Z,70
2017-01-23T08:30:01.406Z,65
2017-01-23T08:31:12.147Z,65
2017-01-23T08:32:22.864Z,70
2017-01-23T08:33:33.593Z,65
2017-01-23T08:34:44.295Z,70
2017-01-23T08:35:55.030Z,70
2017-01-23T08:37:05.734Z,70
2017-01-23T08:38:16.473Z,70
2017-01-23T08:39:27.190Z,70
2017-01-23T08:40:37.893Z,70
2017-01-23T08:41:48.637Z,70
2017-01-23T08:42:59.352Z,70
2017-01-23T08:44:10.087Z,75
2017-01-23T08:45:20.798Z,75
2017-01-23T08:46:31.520Z,75
2017-01-23T08:47:42.236Z,70
2017-01-23T08:48:52.989Z,70
2017-01-23T08:50:03.703Z,70
2017-01-23T08:51:14.406Z,70
2017-01-23T08:52:25.108Z,70
2017-01-23T08:53:35.815Z,70
2017-01-23T08:54:46.544Z,75
2017-01-23T08:55:57.257Z,75
2017-01-23T08:57:07.960Z,80
2017-01-23T08:58:18.662Z,80
2017-01-23T08:59:29.370Z,80
2017-01-23T09:00:40.104Z,80
2017-01-23T09:01:50.805Z,80
2017-01-23T09:03:01.536Z,80
2017-01-23T09:04:12.253Z,95
2017-01-23T09:05:22.976Z,90
2017-01-23T09:06:33.721Z,85
2017-01-23T09:07:44.442Z,85
2017-01-23T09:08:55.190Z,80
2017-01-23T09:10:05.909Z,90
2017-01-23T09:11:16.665Z,100
2017-01-23T09:12:27.367Z,105
2017-01-23T09:13:38.090Z,100
2017-01-23T09:14:48.809Z,105
2017-01-23T09:15:59.522Z,100
2017-01-23T09:17:10.235Z,105
2017-01-23T09:18:20.949Z,100
2017-01-23T09:19:32.060Z,105
2017-01-23T09:20:42.761Z,105
2017-01-23T09:21:53.481Z,105
2017-01-23T09:23:04.209Z,100
2017-01-23T09:24:14.920Z,105
2017-01-23T09:25:25.637Z,105
2017-01-23T09:26:36.383Z,105
2017-01-23T09:27:47.084Z,105
2017-01-23T09:28:57.794Z,105
2017-01-23T09:30:08.516Z,110
2017-01-23T09:31:19.255Z,105
2017-01-23T09:32:30.370Z,115
2017-01-23T09:33:41.072Z,110
2017-01-23T09:34:51.788Z,110
2017-01-23T09:36:02.505Z,110
2017-01-23T09:37:13.226Z,110
2017-01-23T09:38:23.943Z,120
2017-01-23T09:39:34.673Z,120
2017-01-23T09:40:45.409Z,110
2017-01-23T09:41:56.137Z,110
2017-01-23T09:43:06.873Z,115
2017-01-23T09:44:17.622Z,110
2017-01-23T09:45:28.368Z,105
2017-01-23T09:46:39.093Z,105
2017-01-23T09:47:49.808Z,105
2017-01-23T09:49:00.537Z,105
2017-01-23T09:50:11.257Z,105
2017-01-23T09:51:22.006Z,105
2017-01-23T09:52:32.708Z,105
2017-01-23T09:53:43.426Z,110
2017-01-23T09:54:54.150Z,110
2017-01-23T09:56:04.867Z,110
2017-01-23T09:57:15.583Z,115
2017-01-23T09:58:26.300Z,115
2017-01-23T09:59:37.017Z,110
2017-01-23T10:00:47.738Z,115
2017-01-23T10:01:58.463Z,115
2017-01-23T10:03:09.194Z,110
2017-01-23T10:04:19.918Z,115
2017-01-23T10:05:30.651Z,110
2017-01-23T10:06:41.396Z,110
2017-01-23T10:07:52.127Z,110
2017-01-23T10:09:02.859Z,115
2017-01-23T10:10:13.591Z,110
2017-01-23T10:11:24.315Z,110
2017-01-23T10:12:35.007Z,110
2017-01-23T10:13:45.744Z,115
2017-01-23T10:14:56.469Z,110
2017-01-23T10:16:07.214Z,115
2017-01-23T10:17:17.972Z,110
2017-01-23T10:18:28.708Z,110
2017-01-23T10:19:39.441Z,110
2017-01-23T10:20:50.203Z,105
2017-01-23T10:22:00.901Z,105
2017-01-23T10:23:11.990Z,100
2017-01-23T10:24:22.718Z,100
2017-01-23T10:25:33.416Z,105
2017-01-23T10:26:44.126Z,110
2017-01-23T10:27:54.857Z,115
2017-01-23T10:29:05.571Z,125
2017-01-23T10:30:16.288Z,130
2017-01-23T10:31:27.017Z,120
2017-01-23T10:32:37.734Z,125
2017-01-23T10:33:48.460Z,125
2017-01-23T10:34:59.157Z,120
2017-01-23T10:36:09.875Z,115
2017-01-23T10:37:20.582Z,120
2017-01-23T10:38:31.299Z,120
2017-01-23T10:39:42.023Z,115
2017-01-23T10:40:52.755Z,120
2017-01-23T10:42:03.479Z,120
2017-01-23T10:43:14.206Z,115
2017-01-23T10:44:24.926Z,110
2017-01-23T10:45:35.628Z,105
2017-01-23T10:46:46.383Z,105
2017-01-23T10:47:57.116Z,110
2017-01-23T10:49:07.880Z,105
2017-01-23T10:50:18.610Z,105
2017-01-23T10:51:29.332Z,105
2017-01-23T10:52:40.050Z,105
2017-01-23T10:53:50.770Z,105
2017-01-23T10:55:01.483Z,105
2017-01-23T10:56:12.229Z,105
2017-01-23T10:57:22.958Z,105
2017-01-23T10:58:33.669Z,105
2017-01-23T10:59:44.400Z,110
2017-01-23T11:00:55.117Z,105
2017-01-23T11:02:05.841Z,105
2017-01-23T11:03:16.534Z,115
2017-01-23T11:04:27.265Z,115
2017-01-23T11:05:37.981Z,115
2017-01-23T11:06:48.675Z,115
2017-01-23T11:07:59.397Z,120
2017-01-23T11:09:10.535Z,110
2017-01-23T11:10:21.264Z,105
2017-01-23T11:11:31.961Z,110
2017-01-23T11:12:42.706Z,115
2017-01-23T11:13:53.417Z,110
2017-01-23T11:15:04.137Z,105
2017-01-23T11:16:14.844Z,100
2017-01-23T11:17:25.565Z,100
2017-01-23T11:18:36.263Z,100
2017-01-23T11:19:46.978Z,100
2017-01-23T11:20:57.675Z,100
2017-01-23T11:22:08.404Z,100
2017-01-23T11:23:19.142Z,100
2017-01-23T11:24:29.858Z,100
2017-01-23T11:25:40.601Z,95
2017-01-23T11:26:51.338Z,100
2017-01-23T11:28:02.077Z,105
2017-01-23T11:29:12.796Z,110
2017-01-23T11:30:23.567Z,105
2017-01-23T11:31:34.288Z,105
2017-01-23T11:32:45.009Z,110
2017-01-23T11:33:55.711Z,110
2017-01-23T11:35:06.436Z,110
2017-01-23T11:36:17.175Z,110
2017-01-23T11:37:27.889Z,110
2017-01-23T11:38:38.648Z,110
2017-01-23T11:39:49.378Z,115
2017-01-23T11:41:00.110Z,110
2017-01-23T11:42:10.803Z,105
2017-01-23T11:43:21.503Z,100
2017-01-23T11:44:32.218Z,100
2017-01-23T11:45:42.944Z,110
2017-01-23T11:46:53.662Z,105
2017-01-23T11:48:04.402Z,105
2017-01-23T11:49:15.174Z,105
2017-01-23T11:50:25.899Z,110
2017-01-23T11:51:36.597Z,105
2017-01-23T11:52:47.313Z,110
2017-01-23T11:53:58.033Z,110
2017-01-23T11:55:08.783Z,110
2017-01-23T11:56:19.507Z,120
2017-01-23T11:57:30.230Z,130
2017-01-23T11:58:40.946Z,130
2017-01-23T11:59:51.663Z,140
2017-01-23T12:01:02.384Z,140
2017-01-23T12:02:13.105Z,135
2017-01-23T12:03:23.812Z,135
2017-01-23T12:04:34.552Z,135
2017-01-23T12:05:45.250Z,120
2017-01-23T12:06:55.986Z,120
2017-01-23T12:08:06.694Z,120
2017-01-23T12:09:17.414Z,125
2017-01-23T12:10:28.107Z,115
2017-01-23T12:11:38.848Z,120
2017-01-23T12:12:49.593Z,105
2017-01-23T12:14:00.340Z,110
2017-01-23T12:15:11.063Z,110
2017-01-23T12:16:21.792Z,100
2017-01-23T12:17:32.488Z,100
2017-01-23T12:18:43.207Z,105
2017-01-23T12:19:53.928Z,110
2017-01-23T12:21:04.641Z,105
2017-01-23T12:22:15.346Z,105
2017-01-23T12:23:26.084Z,110
2017-01-23T12:24:36.804Z,120
2017-01-23T12:25:47.537Z,110
2017-01-23T12:26:58.231Z,105
2017-01-23T12:28:08.972Z,105
2017-01-23T12:29:19.711Z,100
2017-01-23T12:30:30.415Z,95
2017-01-23T12:31:41.111Z,95
2017-01-23T12:32:51.810Z,105
2017-01-23T12:34:02.524Z,105
2017-01-23T12:35:13.253Z,105
2017-01-23T12:36:23.968Z,105
2017-01-23T12:37:34.707Z,105
2017-01-23T12:38:45.410Z,105
2017-01-23T12:39:56.136Z,105
2017-01-23T12:41:06.873Z,100
2017-01-23T12:42:17.604Z,95
2017-01-23T12:43:28.327Z,100
2017-01-23T12:44:39.063Z,100
2017-01-23T12:45:49.805Z,100
2017-01-23T12:47:00.554Z,95
2017-01-23T12:48:11.257Z,90
2017-01-23T12:49:21.970Z,100
2017-01-23T12:50:32.676Z,100
2017-01-23T12:51:43.402Z,85
2017-01-23T12:52:54.117Z,85
2017-01-23T12:54:04.839Z,85
2017-01-23T12:55:15.579Z,80
2017-01-23T12:56:26.323Z,80
2017-01-23T12:57:37.042Z,80
2017-01-23T12:58:47.761Z,80
2017-01-23T12:59:58.511Z,80
2017-01-23T13:01:09.281Z,80
2017-01-23T13:02:20.002Z,80
2017-01-23T13:03:30.710Z,75
2017-01-23T13:04:41.433Z,70
2017-01-23T13:05:52.189Z,80
2017-01-23T13:07:02.919Z,85
2017-01-23T13:08:13.656Z,80
2017-01-23T13:09:24.387Z,80
2017-01-23T13:10:35.137Z,75
2017-01-23T13:11:45.826Z,75
2017-01-23T13:12:56.554Z,80
2017-01-23T13:14:07.287Z,75
2017-01-23T13:15:18.014Z,85
2017-01-23T13:16:28.750Z,80
2017-01-23T13:17:39.474Z,80
2017-01-23T13:18:50.208Z,75
2017-01-23T13:20:00.951Z,85
2017-01-23T13:21:11.642Z,80
2017-01-23T13:22:22.367Z,75
2017-01-23T13:23:33.106Z,80
2017-01-23T13:24:43.823Z,75
2017-01-23T13:25:54.534Z,70
2017-01-23T13:27:05.248Z,70
2017-01-23T13:28:15.947Z,70
2017-01-23T13:29:26.682Z,65
2017-01-23T13:30:37.810Z,70
2017-01-23T13:31:48.506Z,75
2017-01-23T13:32:59.223Z,70
2017-01-23T13:34:09.944Z,70
2017-01-23T13:35:20.651Z,65
2017-01-23T13:36:31.366Z,70
2017-01-23T13:37:42.092Z,65
2017-01-23T13:38:52.782Z,75
2017-01-23T13:40:03.508Z,75
2017-01-23T13:41:14.229Z,70
2017-01-23T13:42:24.940Z,70
2017-01-23T13:43:35.712Z,65
2017-01-23T13:44:46.422Z,65
2017-01-23T13:45:57.134Z,65
2017-01-23T13:47:07.871Z,60
2017-01-23T13:48:18.598Z,65
2017-01-23T13:49:29.342Z,65
2017-01-23T13:50:40.068Z,60
2017-01-23T13:51:50.779Z,65
2017-01-23T13:53:01.483Z,60
2017-01-23T13:54:12.186Z,60
2017-01-23T13:55:22.915Z,60
2017-01-23T13:56:33.654Z,60
2017-01-23T13:57:44.383Z,60
2017-01-23T13:58:55.133Z,55
2017-01-23T14:00:05.861Z,60
2017-01-23T14:01:16.581Z,60
2017-01-23T14:02:27.301Z,65
2017-01-23T14:03:38.022Z,70
2017-01-23T14:04:48.749Z,65
2017-01-23T14:05:59.471Z,60
2017-01-23T14:07:10.187Z,60
2017-01-23T14:08:20.899Z,60
2017-01-23T14:09:31.606Z,55
2017-01-23T14:10:42.323Z,55
2017-01-23T14:11:53.069Z,55
2017-01-23T14:13:03.782Z,50
2017-01-23T14:14:14.526Z,50
2017-01-23T14:15:25.258Z,45
2017-01-23T14:16:35.976Z,45
2017-01-23T14:17:46.691Z,40
2017-01-23T14:18:57.425Z,40
2017-01-23T14:20:08.157Z,45
2017-01-23T14:21:18.860Z,40
2017-01-23T14:22:29.577Z,40
2017-01-23T14:23:40.315Z,40
2017-01-23T14:24:51.421Z,40
2017-01-23T14:26:02.139Z,40
2017-01-23T14:27:12.860Z,45
2017-01-23T14:28:23.602Z,45
2017-01-23T14:29:34.322Z,40
2017-01-23T14:30:45.024Z,40
2017-01-23T14:31:55.739Z,40
2017-01-23T14:33:06.441Z,40
2017-01-23T14:34:17.160Z,35
2017-01-23T14:35:27.890Z,35
2017-01-23T14:36:38.618Z,30
2017-01-23T14:37:49.348Z,35
2017-01-23T14:39:00.046Z,30
2017-01-23T14:40:10.757Z,30
2017-01-23T14:41:21.488Z,30
2017-01-23T14:42:32.208Z,25
2017-01-23T14:43:42.932Z,25
2017-01-23T14:44:53.668Z,20
2017-01-23T14:46:04.414Z,20
2017-01-23T14:47:15.140Z,20
2017-01-23T14:48:25.855Z,20
2017-01-23T14:49:36.558Z,15
2017-01-23T14:50:47.297Z,15
2017-01-23T14:51:58.032Z,20
2017-01-23T14:53:08.770Z,20
2017-01-23T14:54:19.510Z,15
2017-01-23T14:55:30.263Z,15
2017-01-23T14:56:40.974Z,15
2017-01-23T14:57:51.697Z,15
2017-01-23T14:59:02.396Z,15
2017-01-23T15:00:13.492Z,10
2017-01-23T15:01:24.213Z,10
2017-01-23T15:02:34.940Z,10
2017-01-23T15:03:45.683Z,10
2017-01-23T15:04:56.405Z,10
2017-01-23T15:06:07.126Z,10
2017-01-23T15:07:17.862Z,10
2017-01-23T15:08:28.567Z,10
2017-01-23T15:09:39.304Z,10
2017-01-23T15:10:50.033Z,10
2017-01-23T15:12:00.756Z,10
2017-01-23T15:13:11.476Z,10
2017-01-23T15:14:22.210Z,5
2017-01-23T15:15:32.958Z,5
2017-01-23T15:16:43.715Z,5
2017-01-23T15:17:54.436Z,10
2017-01-23T15:19:05.176Z,10
2017-01-23T15:20:15.902Z,5
2017-01-23T15:21:26.612Z,5
2017-01-23T15:22:37.716Z,5
2017-01-23T15:23:48.430Z,5
2017-01-23T15:24:59.159Z,5
2017-01-23T15:26:09.888Z,5
2017-01-23T15:27:20.597Z,5
2017-01-23T15:28:31.297Z,5
2017-01-23T15:29:42.020Z,5
2017-01-23T15:30:52.756Z,0
2017-01-23T15:32:03.453Z,0
2017-01-23T15:33:14.164Z,0
2017-01-23T15:34:24.902Z,0
2017-01-23T15:35:35.617Z,0
2017-01-23T15:36:46.346Z,0
2017-01-23T15:37:57.074Z,0
2017-01-23T15:39:07.786Z,0
2017-01-23T15:40:18.512Z,0
2017-01-23T15:41:29.221Z,0
2017-01-23T15:42:39.926Z,0
2017-01-23T15:43:50.646Z,0
2017-01-23T15:45:01.324Z,0
2017-01-23T15:46:12.040Z,0
2017-01-23T15:47:22.744Z,0
2017-01-23T15:48:33.485Z,0
2017-01-23T15:49:44.230Z,0
2017-01-23T15:50:54.947Z,0
2017-01-23T15:52:05.662Z,0
2017-01-23T15:53:16.389Z,0
2017-01-23T15:54:27.096Z,0
2017-01-23T15:55:37.827Z,0
2017-01-23T15:56:48.558Z,0
2017-01-23T15:57:59.278Z,0
2017-01-23T15:59:09.976Z,0
2017-01-23T16:00:20.694Z,0
2017-01-23T16:01:31.408Z,0
2017-01-23T16:02:42.114Z,0
2017-01-23T16:03:52.853Z,0
2017-01-23T16:05:03.581Z,0
2017-01-23T16:06:14.295Z,0
2017-01-23T16:07:25.032Z,0
2017-01-23T16:08:35.783Z,0
2017-01-23T16:09:46.511Z,0
2017-01-23T16:10:57.247Z,0
2017-01-23T16:12:07.967Z,0
2017-01-23T16:13:18.700Z,0
2017-01-23T16:14:29.425Z,0
2017-01-23T16:15:40.141Z,0
2017-01-23T16:16:50.866Z,0
2017-01-23T16:18:01.625Z,0
2017-01-23T16:19:12.355Z,0
2017-01-23T16:20:23.068Z,0
2017-01-23T16:21:33.768Z,0
2017-01-23T16:22:44.488Z,0
2017-01-23T16:23:55.230Z,0
2017-01-23T16:25:05.975Z,0
2017-01-23T16:26:17.078Z,0
2017-01-23T16:27:27.800Z,0
2017-01-23T16:28:38.518Z,0
2017-01-23T16:29:49.218Z,0
2017-01-23T16:30:59.963Z,0
2017-01-23T16:32:10.684Z,0
2017-01-23T16:33:21.411Z,0
2017-01-23T16:34:32.150Z,0
2017-01-23T16:35:42.843Z,0
2017-01-23T16:36:53.539Z,0
2017-01-23T16:38:04.240Z,0
2017-01-23T16:39:14.958Z,0
2017-01-23T16:40:25.687Z,0
2017-01-23T16:41:36.418Z,0
2017-01-23T16:42:47.138Z,0
2017-01-23T16:43:57.868Z,0
2017-01-23T16:45:08.586Z,0
2017-01-23T16:46:19.326Z,0
2017-01-23T16:47:30.032Z,0
2017-01-23T16:48:40.769Z,0
2017-01-23T16:49:51.488Z,0
2017-01-23T16:51:02.208Z,0
2017-01-23T16:52:12.940Z,0
2017-01-23T16:53:23.663Z,0
2017-01-23T16:54:34.423Z,0
2017-01-23T16:55:45.169Z,0
2017-01-23T16:56:55.869Z,0
2017-01-23T16:58:06.586Z,0
2017-01-23T16:59:17.320Z,0
2017-01-23T17:00:28.054Z,0